sensor_id;sensor_type;location;lat;lon;timestamp;pressure;altitude;pressure_sealevel;temperature;humidity
76603;BME280;65075;48.390;17.598;2022-12-01T00:00:56;100310.84;;;3.44;64.94
76603;BME280;65075;48.390;17.598;2022-12-01T00:03:22;100328.69;;;3.71;65.38
76603;BME280;65075;48.390;17.598;2022-12-01T00:06:05;100294.22;;;3.40;66.45
76603;BME280;65075;48.390;17.598;2022-12-01T00:08:32;100313.38;;;3.85;64.95
76603;BME280;65075;48.390;17.598;2022-12-01T00:11:06;100303.31;;;4.38;64.09
76603;BME280;65075;48.390;17.598;2022-12-01T00:13:34;100283.63;;;4.24;63.98
76603;BME280;65075;48.390;17.598;2022-12-01T00:16:14;100304.78;;;4.34;63.27
76603;BME280;65075;48.390;17.598;2022-12-01T00:18:42;100297.06;;;4.44;64.68
76603;BME280;65075;48.390;17.598;2022-12-01T00:21:16;100273.88;;;3.51;66.64
76603;BME280;65075;48.390;17.598;2022-12-01T00:23:43;100253.94;;;3.13;66.10
76603;BME280;65075;48.390;17.598;2022-12-01T00:26:12;100270.16;;;4.04;63.29
76603;BME280;65075;48.390;17.598;2022-12-01T00:28:38;100298.34;;;4.28;64.11
76603;BME280;65075;48.390;17.598;2022-12-01T00:31:11;100276.00;;;3.75;64.20
76603;BME280;65075;48.390;17.598;2022-12-01T00:33:38;100306.25;;;4.30;63.65
76603;BME280;65075;48.390;17.598;2022-12-01T00:36:05;100304.81;;;3.94;64.18
76603;BME280;65075;48.390;17.598;2022-12-01T00:38:32;100311.69;;;3.71;64.55
76603;BME280;65075;48.390;17.598;2022-12-01T00:40:58;100278.88;;;3.61;64.93
76603;BME280;65075;48.390;17.598;2022-12-01T00:43:24;100283.44;;;3.60;65.14
76603;BME280;65075;48.390;17.598;2022-12-01T00:45:51;100309.59;;;4.19;63.87
76603;BME280;65075;48.390;17.598;2022-12-01T00:48:17;100284.47;;;3.33;64.99
76603;BME280;65075;48.390;17.598;2022-12-01T00:50:43;100302.31;;;3.40;65.60
76603;BME280;65075;48.390;17.598;2022-12-01T00:53:10;100277.81;;;3.16;66.98
76603;BME280;65075;48.390;17.598;2022-12-01T00:55:35;100310.88;;;3.70;66.70
76603;BME280;65075;48.390;17.598;2022-12-01T00:58:01;100244.22;;;3.25;64.87
76603;BME280;65075;48.390;17.598;2022-12-01T01:00:27;100275.56;;;3.78;64.43
76603;BME280;65075;48.390;17.598;2022-12-01T01:02:53;100293.38;;;3.27;67.46
76603;BME280;65075;48.390;17.598;2022-12-01T01:05:19;100279.72;;;3.61;66.59
76603;BME280;65075;48.390;17.598;2022-12-01T01:07:45;100297.13;;;4.24;63.33
76603;BME280;65075;48.390;17.598;2022-12-01T01:10:11;100302.28;;;4.32;64.87
76603;BME280;65075;48.390;17.598;2022-12-01T01:12:37;100298.59;;;3.55;66.54
76603;BME280;65075;48.390;17.598;2022-12-01T01:15:05;100297.97;;;3.92;64.62
76603;BME280;65075;48.390;17.598;2022-12-01T01:17:32;100303.38;;;4.12;62.99
76603;BME280;65075;48.390;17.598;2022-12-01T01:19:58;100300.47;;;3.80;65.57
76603;BME280;65075;48.390;17.598;2022-12-01T01:22:24;100269.72;;;3.16;67.22
76603;BME280;65075;48.390;17.598;2022-12-01T01:24:50;100300.44;;;3.28;65.83
76603;BME280;65075;48.390;17.598;2022-12-01T01:27:16;100303.34;;;3.46;65.14
76603;BME280;65075;48.390;17.598;2022-12-01T01:29:42;100245.94;;;2.65;66.69
76603;BME280;65075;48.390;17.598;2022-12-01T01:32:08;100300.41;;;3.15;66.98
76603;BME280;65075;48.390;17.598;2022-12-01T01:34:34;100284.59;;;2.99;68.19
76603;BME280;65075;48.390;17.598;2022-12-01T01:36:59;100308.84;;;2.99;67.89
76603;BME280;65075;48.390;17.598;2022-12-01T01:39:25;100299.09;;;2.91;67.78
76603;BME280;65075;48.390;17.598;2022-12-01T01:41:51;100311.78;;;3.17;67.91
76603;BME280;65075;48.390;17.598;2022-12-01T01:44:50;100317.09;;;3.77;66.85
76603;BME280;65075;48.390;17.598;2022-12-01T01:47:24;100322.91;;;4.14;64.95
76603;BME280;65075;48.390;17.598;2022-12-01T01:49:53;100327.44;;;4.20;64.21
76603;BME280;65075;48.390;17.598;2022-12-01T01:52:22;100317.50;;;4.07;62.98
76603;BME280;65075;48.390;17.598;2022-12-01T01:54:51;100311.69;;;4.10;62.64
76603;BME280;65075;48.390;17.598;2022-12-01T01:57:30;100320.91;;;4.60;63.19
76603;BME280;65075;48.390;17.598;2022-12-01T02:00:05;100308.38;;;4.01;63.18
76603;BME280;65075;48.390;17.598;2022-12-01T02:02:36;100305.84;;;4.26;63.14
76603;BME280;65075;48.390;17.598;2022-12-01T02:05:15;100323.09;;;4.05;63.83
76603;BME280;65075;48.390;17.598;2022-12-01T02:07:41;100317.84;;;4.37;62.68
76603;BME280;65075;48.390;17.598;2022-12-01T02:10:10;100230.13;;;3.49;64.24
76603;BME280;65075;48.390;17.598;2022-12-01T02:15:51;100303.19;;;3.67;64.16
76603;BME280;65075;48.390;17.598;2022-12-01T02:21:41;100309.97;;;3.37;66.23
76603;BME280;65075;48.390;17.598;2022-12-01T02:30:17;100314.59;;;3.76;65.33
76603;BME280;65075;48.390;17.598;2022-12-01T02:33:17;100306.25;;;3.38;66.41
76603;BME280;65075;48.390;17.598;2022-12-01T02:35:51;100305.88;;;4.00;62.85
76603;BME280;65075;48.390;17.598;2022-12-01T02:41:11;100304.16;;;3.14;66.25
76603;BME280;65075;48.390;17.598;2022-12-01T02:44:14;100302.13;;;3.75;65.54
76603;BME280;65075;48.390;17.598;2022-12-01T02:47:04;100296.34;;;3.84;63.93
76603;BME280;65075;48.390;17.598;2022-12-01T02:49:47;100306.69;;;3.48;63.59
76603;BME280;65075;48.390;17.598;2022-12-01T02:52:15;100299.66;;;3.73;64.23
76603;BME280;65075;48.390;17.598;2022-12-01T02:54:44;100316.28;;;3.96;62.43
76603;BME280;65075;48.390;17.598;2022-12-01T02:57:13;100296.13;;;3.99;62.42
76603;BME280;65075;48.390;17.598;2022-12-01T02:59:43;100301.66;;;4.37;60.65
76603;BME280;65075;48.390;17.598;2022-12-01T03:02:22;100316.22;;;3.44;65.07
76603;BME280;65075;48.390;17.598;2022-12-01T03:05:01;100305.19;;;3.26;63.97
76603;BME280;65075;48.390;17.598;2022-12-01T03:10:14;100319.59;;;3.98;60.85
76603;BME280;65075;48.390;17.598;2022-12-01T03:20:42;100323.88;;;3.34;63.28
76603;BME280;65075;48.390;17.598;2022-12-01T03:23:14;100326.44;;;4.08;63.46
76603;BME280;65075;48.390;17.598;2022-12-01T03:25:47;100332.03;;;3.86;62.76
76603;BME280;65075;48.390;17.598;2022-12-01T03:28:18;100260.09;;;2.87;64.60
76603;BME280;65075;48.390;17.598;2022-12-01T03:30:49;100325.78;;;4.05;63.39
76603;BME280;65075;48.390;17.598;2022-12-01T03:33:26;100308.78;;;3.85;63.69
76603;BME280;65075;48.390;17.598;2022-12-01T03:38:28;100300.38;;;2.54;66.29
76603;BME280;65075;48.390;17.598;2022-12-01T03:40:59;100331.72;;;3.16;66.10
76603;BME280;65075;48.390;17.598;2022-12-01T03:43:34;100289.44;;;2.69;66.21
76603;BME280;65075;48.390;17.598;2022-12-01T03:46:21;100330.47;;;2.64;66.32
76603;BME280;65075;48.390;17.598;2022-12-01T03:48:50;100321.31;;;2.59;68.12
76603;BME280;65075;48.390;17.598;2022-12-01T03:51:33;100331.72;;;2.68;68.12
76603;BME280;65075;48.390;17.598;2022-12-01T03:54:19;100324.81;;;2.94;65.82
76603;BME280;65075;48.390;17.598;2022-12-01T03:56:58;100314.34;;;2.77;66.92
76603;BME280;65075;48.390;17.598;2022-12-01T03:59:27;100312.50;;;3.71;63.83
76603;BME280;65075;48.390;17.598;2022-12-01T04:01:54;100317.94;;;3.84;63.50
76603;BME280;65075;48.390;17.598;2022-12-01T04:04:19;100336.72;;;3.32;64.02
76603;BME280;65075;48.390;17.598;2022-12-01T04:06:48;100311.31;;;2.87;64.50
76603;BME280;65075;48.390;17.598;2022-12-01T04:09:15;100329.94;;;3.88;62.74
76603;BME280;65075;48.390;17.598;2022-12-01T04:11:41;100331.09;;;3.14;65.20
76603;BME280;65075;48.390;17.598;2022-12-01T04:14:25;100301.97;;;2.89;65.03
76603;BME280;65075;48.390;17.598;2022-12-01T04:16:51;100321.59;;;3.31;64.22
76603;BME280;65075;48.390;17.598;2022-12-01T04:19:17;100277.50;;;2.84;65.86
76603;BME280;65075;48.390;17.598;2022-12-01T04:21:43;100243.34;;;2.98;65.11
76603;BME280;65075;48.390;17.598;2022-12-01T04:24:11;100290.63;;;2.53;65.81
76603;BME280;65075;48.390;17.598;2022-12-01T04:26:37;100321.06;;;2.95;65.12
76603;BME280;65075;48.390;17.598;2022-12-01T04:29:07;100333.00;;;2.38;67.32
76603;BME280;65075;48.390;17.598;2022-12-01T04:31:33;100313.50;;;2.70;67.07
76603;BME280;65075;48.390;17.598;2022-12-01T04:33:59;100311.38;;;3.20;64.54
76603;BME280;65075;48.390;17.598;2022-12-01T04:36:29;100322.47;;;3.44;65.20
76603;BME280;65075;48.390;17.598;2022-12-01T04:38:55;100324.50;;;3.29;63.43
76603;BME280;65075;48.390;17.598;2022-12-01T04:41:21;100286.63;;;2.36;65.86
76603;BME280;65075;48.390;17.598;2022-12-01T04:43:47;100317.72;;;2.86;67.04
76603;BME280;65075;48.390;17.598;2022-12-01T04:46:14;100314.50;;;2.22;66.73
76603;BME280;65075;48.390;17.598;2022-12-01T04:48:40;100286.13;;;2.26;67.56
76603;BME280;65075;48.390;17.598;2022-12-01T04:51:07;100325.72;;;2.66;66.07
76603;BME280;65075;48.390;17.598;2022-12-01T04:53:35;100322.13;;;2.94;66.26
76603;BME280;65075;48.390;17.598;2022-12-01T04:56:01;100311.53;;;2.51;66.00
76603;BME280;65075;48.390;17.598;2022-12-01T04:58:28;100322.78;;;3.09;64.15
76603;BME280;65075;48.390;17.598;2022-12-01T05:01:00;100316.09;;;2.98;65.63
76603;BME280;65075;48.390;17.598;2022-12-01T05:03:27;100272.75;;;2.46;64.35
76603;BME280;65075;48.390;17.598;2022-12-01T05:06:05;100269.75;;;3.48;61.95
76603;BME280;65075;48.390;17.598;2022-12-01T05:08:31;100319.53;;;2.72;64.98
76603;BME280;65075;48.390;17.598;2022-12-01T05:10:57;100307.84;;;3.06;63.85
76603;BME280;65075;48.390;17.598;2022-12-01T05:13:23;100331.50;;;3.11;63.84
76603;BME280;65075;48.390;17.598;2022-12-01T05:15:49;100232.34;;;2.93;64.52
76603;BME280;65075;48.390;17.598;2022-12-01T05:18:15;100335.97;;;3.77;62.35
76603;BME280;65075;48.390;17.598;2022-12-01T05:20:41;100337.59;;;3.45;63.82
76603;BME280;65075;48.390;17.598;2022-12-01T05:23:27;100332.25;;;3.78;63.22
76603;BME280;65075;48.390;17.598;2022-12-01T05:25:53;100338.22;;;3.41;62.89
76603;BME280;65075;48.390;17.598;2022-12-01T05:28:20;100339.09;;;3.61;63.03
76603;BME280;65075;48.390;17.598;2022-12-01T05:30:48;100333.19;;;3.18;62.90
76603;BME280;65075;48.390;17.598;2022-12-01T05:33:14;100337.34;;;3.34;63.23
76603;BME280;65075;48.390;17.598;2022-12-01T05:35:40;100334.78;;;3.00;63.29
76603;BME280;65075;48.390;17.598;2022-12-01T05:38:06;100330.06;;;3.08;64.21
76603;BME280;65075;48.390;17.598;2022-12-01T05:40:33;100305.94;;;3.00;64.58
76603;BME280;65075;48.390;17.598;2022-12-01T05:42:59;100338.69;;;2.97;64.60
76603;BME280;65075;48.390;17.598;2022-12-01T05:45:25;100349.47;;;2.91;63.64
76603;BME280;65075;48.390;17.598;2022-12-01T05:47:58;100343.28;;;2.97;64.42
76603;BME280;65075;48.390;17.598;2022-12-01T05:50:27;100350.25;;;2.44;64.60
76603;BME280;65075;48.390;17.598;2022-12-01T05:52:53;100354.00;;;2.49;65.49
76603;BME280;65075;48.390;17.598;2022-12-01T05:55:19;100344.41;;;2.40;66.34
76603;BME280;65075;48.390;17.598;2022-12-01T05:57:46;100343.94;;;2.30;66.84
76603;BME280;65075;48.390;17.598;2022-12-01T06:00:13;100345.19;;;1.79;67.26
76603;BME280;65075;48.390;17.598;2022-12-01T06:02:40;100346.47;;;2.38;68.25
76603;BME280;65075;48.390;17.598;2022-12-01T06:05:08;100353.16;;;2.49;66.73
76603;BME280;65075;48.390;17.598;2022-12-01T06:07:34;100332.59;;;1.79;67.60
76603;BME280;65075;48.390;17.598;2022-12-01T06:10:01;100359.47;;;2.62;65.39
76603;BME280;65075;48.390;17.598;2022-12-01T06:12:27;100360.28;;;3.04;63.81
76603;BME280;65075;48.390;17.598;2022-12-01T06:14:53;100366.22;;;2.86;65.40
76603;BME280;65075;48.390;17.598;2022-12-01T06:17:19;100364.84;;;3.70;62.01
76603;BME280;65075;48.390;17.598;2022-12-01T06:19:45;100357.38;;;4.25;59.79
76603;BME280;65075;48.390;17.598;2022-12-01T06:22:13;100354.47;;;3.74;60.13
76603;BME280;65075;48.390;17.598;2022-12-01T06:24:38;100299.13;;;2.16;64.69
76603;BME280;65075;48.390;17.598;2022-12-01T06:27:04;100383.88;;;2.26;66.18
76603;BME280;65075;48.390;17.598;2022-12-01T06:29:30;100356.28;;;1.90;67.38
76603;BME280;65075;48.390;17.598;2022-12-01T06:31:56;100380.69;;;1.67;69.50
76603;BME280;65075;48.390;17.598;2022-12-01T06:34:22;100358.03;;;1.77;69.08
76603;BME280;65075;48.390;17.598;2022-12-01T06:36:48;100384.22;;;2.79;64.34
76603;BME280;65075;48.390;17.598;2022-12-01T06:39:15;100364.81;;;3.64;61.63
76603;BME280;65075;48.390;17.598;2022-12-01T06:41:42;100378.53;;;3.62;61.33
76603;BME280;65075;48.390;17.598;2022-12-01T06:44:09;100386.03;;;4.13;59.90
76603;BME280;65075;48.390;17.598;2022-12-01T06:46:35;100380.00;;;4.37;61.33
76603;BME280;65075;48.390;17.598;2022-12-01T06:49:01;100370.31;;;6.07;54.91
76603;BME280;65075;48.390;17.598;2022-12-01T06:51:27;100386.28;;;6.40;53.30
76603;BME280;65075;48.390;17.598;2022-12-01T06:53:54;100372.28;;;6.24;53.10
76603;BME280;65075;48.390;17.598;2022-12-01T06:56:21;100382.72;;;6.21;53.45
76603;BME280;65075;48.390;17.598;2022-12-01T06:58:49;100370.25;;;5.89;54.69
76603;BME280;65075;48.390;17.598;2022-12-01T07:01:17;100384.41;;;5.53;53.92
76603;BME280;65075;48.390;17.598;2022-12-01T07:03:50;100376.34;;;5.77;54.06
76603;BME280;65075;48.390;17.598;2022-12-01T07:06:16;100381.41;;;6.73;52.27
76603;BME280;65075;48.390;17.598;2022-12-01T07:08:43;100298.31;;;7.56;49.37
76603;BME280;65075;48.390;17.598;2022-12-01T07:11:11;100381.53;;;7.32;49.33
76603;BME280;65075;48.390;17.598;2022-12-01T07:13:38;100324.75;;;7.31;48.64
76603;BME280;65075;48.390;17.598;2022-12-01T07:16:05;100389.53;;;10.72;41.22
76603;BME280;65075;48.390;17.598;2022-12-01T07:18:32;100388.41;;;11.98;38.85
76603;BME280;65075;48.390;17.598;2022-12-01T07:20:59;100386.56;;;11.34;40.01
76603;BME280;65075;48.390;17.598;2022-12-01T07:23:26;100342.47;;;10.27;41.41
76603;BME280;65075;48.390;17.598;2022-12-01T07:28:29;100388.97;;;12.64;36.82
76603;BME280;65075;48.390;17.598;2022-12-01T07:31:03;100385.66;;;13.56;34.80
76603;BME280;65075;48.390;17.598;2022-12-01T07:33:30;100399.72;;;11.80;38.34
76603;BME280;65075;48.390;17.598;2022-12-01T07:35:56;100396.19;;;13.99;35.09
76603;BME280;65075;48.390;17.598;2022-12-01T07:38:22;100405.53;;;14.13;33.14
76603;BME280;65075;48.390;17.598;2022-12-01T07:40:48;100374.75;;;15.76;30.57
76603;BME280;65075;48.390;17.598;2022-12-01T07:43:14;100362.97;;;13.81;32.39
76603;BME280;65075;48.390;17.598;2022-12-01T07:45:40;100398.22;;;15.64;31.82
76603;BME280;65075;48.390;17.598;2022-12-01T07:48:06;100359.97;;;12.68;35.24
76603;BME280;65075;48.390;17.598;2022-12-01T07:50:31;100404.81;;;15.63;30.22
76603;BME280;65075;48.390;17.598;2022-12-01T07:52:57;100418.72;;;16.30;31.95
76603;BME280;65075;48.390;17.598;2022-12-01T07:55:23;100420.06;;;17.77;28.22
76603;BME280;65075;48.390;17.598;2022-12-01T07:57:49;100426.63;;;17.33;28.42
76603;BME280;65075;48.390;17.598;2022-12-01T08:00:15;100422.13;;;17.42;29.45
76603;BME280;65075;48.390;17.598;2022-12-01T08:02:41;100412.84;;;16.81;28.97
76603;BME280;65075;48.390;17.598;2022-12-01T08:05:07;100419.63;;;13.50;35.33
76603;BME280;65075;48.390;17.598;2022-12-01T08:07:33;100415.03;;;11.38;38.54
76603;BME280;65075;48.390;17.598;2022-12-01T08:09:59;100416.91;;;12.66;35.64
76603;BME280;65075;48.390;17.598;2022-12-01T08:12:25;100424.00;;;16.22;30.75
76603;BME280;65075;48.390;17.598;2022-12-01T08:14:51;100415.84;;;15.53;31.44
76603;BME280;65075;48.390;17.598;2022-12-01T08:17:17;100417.34;;;15.89;32.24
76603;BME280;65075;48.390;17.598;2022-12-01T08:19:43;100406.41;;;14.84;33.42
76603;BME280;65075;48.390;17.598;2022-12-01T08:22:08;100415.91;;;15.37;32.39
76603;BME280;65075;48.390;17.598;2022-12-01T08:24:34;100417.81;;;17.79;29.47
76603;BME280;65075;48.390;17.598;2022-12-01T08:27:01;100428.03;;;15.21;30.97
76603;BME280;65075;48.390;17.598;2022-12-01T08:29:26;100423.97;;;16.27;32.12
76603;BME280;65075;48.390;17.598;2022-12-01T08:31:56;100428.41;;;17.71;29.14
76603;BME280;65075;48.390;17.598;2022-12-01T08:34:22;100431.25;;;16.51;29.52
76603;BME280;65075;48.390;17.598;2022-12-01T08:36:48;100416.50;;;17.00;29.80
76603;BME280;65075;48.390;17.598;2022-12-01T08:39:14;100397.31;;;18.59;26.33
76603;BME280;65075;48.390;17.598;2022-12-01T08:41:40;100423.09;;;16.36;31.28
76603;BME280;65075;48.390;17.598;2022-12-01T08:44:08;100423.81;;;15.59;32.29
76603;BME280;65075;48.390;17.598;2022-12-01T08:46:35;100407.34;;;16.81;28.89
76603;BME280;65075;48.390;17.598;2022-12-01T08:49:03;100427.19;;;18.90;27.59
76603;BME280;65075;48.390;17.598;2022-12-01T08:51:29;100423.31;;;19.04;26.60
76603;BME280;65075;48.390;17.598;2022-12-01T08:53:58;100423.25;;;17.84;29.88
76603;BME280;65075;48.390;17.598;2022-12-01T08:56:28;100421.22;;;17.94;29.60
76603;BME280;65075;48.390;17.598;2022-12-01T08:58:54;100424.75;;;15.93;31.36
76603;BME280;65075;48.390;17.598;2022-12-01T09:01:21;100412.72;;;18.79;27.56
76603;BME280;65075;48.390;17.598;2022-12-01T09:03:47;100431.69;;;17.73;29.47
76603;BME280;65075;48.390;17.598;2022-12-01T09:06:16;100399.75;;;16.29;31.31
76603;BME280;65075;48.390;17.598;2022-12-01T09:08:43;100431.13;;;16.72;30.20
76603;BME280;65075;48.390;17.598;2022-12-01T09:11:16;100422.38;;;19.68;27.21
76603;BME280;65075;48.390;17.598;2022-12-01T09:13:44;100409.63;;;20.75;24.37
76603;BME280;65075;48.390;17.598;2022-12-01T09:16:13;100439.19;;;19.85;25.24
76603;BME280;65075;48.390;17.598;2022-12-01T09:18:41;100435.03;;;20.90;24.60
76603;BME280;65075;48.390;17.598;2022-12-01T09:23:38;100427.25;;;19.17;25.81
76603;BME280;65075;48.390;17.598;2022-12-01T09:26:05;100434.41;;;21.16;24.18
76603;BME280;65075;48.390;17.598;2022-12-01T09:28:32;100425.69;;;21.79;23.37
76603;BME280;65075;48.390;17.598;2022-12-01T09:31:06;100422.59;;;18.66;27.76
76603;BME280;65075;48.390;17.598;2022-12-01T09:33:33;100424.38;;;21.85;23.37
76603;BME280;65075;48.390;17.598;2022-12-01T09:36:00;100403.19;;;21.10;24.36
76603;BME280;65075;48.390;17.598;2022-12-01T09:38:32;100407.09;;;21.40;24.13
76603;BME280;65075;48.390;17.598;2022-12-01T09:41:03;100424.28;;;16.25;30.24
76603;BME280;65075;48.390;17.598;2022-12-01T09:43:39;100382.75;;;17.60;28.02
76603;BME280;65075;48.390;17.598;2022-12-01T09:46:13;100411.72;;;20.69;25.72
76603;BME280;65075;48.390;17.598;2022-12-01T09:48:43;100405.91;;;21.80;23.37
76603;BME280;65075;48.390;17.598;2022-12-01T09:51:18;100417.56;;;24.07;20.83
76603;BME280;65075;48.390;17.598;2022-12-01T09:53:49;100418.59;;;20.14;25.03
76603;BME280;65075;48.390;17.598;2022-12-01T09:56:24;100413.25;;;19.68;26.68
76603;BME280;65075;48.390;17.598;2022-12-01T09:58:57;100414.13;;;19.09;28.43
76603;BME280;65075;48.390;17.598;2022-12-01T10:01:34;100416.53;;;20.77;24.95
76603;BME280;65075;48.390;17.598;2022-12-01T10:06:41;100409.34;;;23.14;21.77
76603;BME280;65075;48.390;17.598;2022-12-01T10:09:15;100403.50;;;18.33;28.43
76603;BME280;65075;48.390;17.598;2022-12-01T10:11:46;100390.03;;;21.72;24.43
76603;BME280;65075;48.390;17.598;2022-12-01T10:14:18;100396.69;;;22.28;23.83
76603;BME280;65075;48.390;17.598;2022-12-01T10:17:10;100398.44;;;24.26;21.12
76603;BME280;65075;48.390;17.598;2022-12-01T10:20:03;100400.00;;;24.69;20.00
76603;BME280;65075;48.390;17.598;2022-12-01T10:22:59;100401.59;;;25.23;19.98
76603;BME280;65075;48.390;17.598;2022-12-01T10:25:37;100388.72;;;21.69;22.96
76603;BME280;65075;48.390;17.598;2022-12-01T10:28:26;100387.22;;;23.85;20.73
76603;BME280;65075;48.390;17.598;2022-12-01T10:31:06;100379.44;;;25.06;18.84
76603;BME280;65075;48.390;17.598;2022-12-01T10:34:34;100383.69;;;25.97;18.76
76603;BME280;65075;48.390;17.598;2022-12-01T10:36:35;100378.38;;;25.80;19.10
76603;BME280;65075;48.390;17.598;2022-12-01T10:39:04;100383.38;;;23.69;21.27
76603;BME280;65075;48.390;17.598;2022-12-01T10:41:35;100350.06;;;22.24;21.67
76603;BME280;65075;48.390;17.598;2022-12-01T10:44:05;100369.63;;;22.88;21.60
76603;BME280;65075;48.390;17.598;2022-12-01T10:49:13;100372.53;;;19.27;25.93
76603;BME280;65075;48.390;17.598;2022-12-01T10:54:11;100364.19;;;19.82;25.45
76603;BME280;65075;48.390;17.598;2022-12-01T10:56:40;100367.44;;;23.11;21.70
76603;BME280;65075;48.390;17.598;2022-12-01T10:59:27;100360.53;;;20.97;24.62
76603;BME280;65075;48.390;17.598;2022-12-01T11:01:57;100359.03;;;23.19;21.48
76603;BME280;65075;48.390;17.598;2022-12-01T11:04:43;100354.94;;;23.55;22.43
76603;BME280;65075;48.390;17.598;2022-12-01T11:07:19;100358.78;;;19.36;26.28
76603;BME280;65075;48.390;17.598;2022-12-01T11:10:07;100340.63;;;24.15;21.39
76603;BME280;65075;48.390;17.598;2022-12-01T11:12:40;100341.41;;;23.74;21.63
76603;BME280;65075;48.390;17.598;2022-12-01T11:15:17;100352.06;;;24.22;20.76
76603;BME280;65075;48.390;17.598;2022-12-01T11:17:46;100342.44;;;23.31;22.01
76603;BME280;65075;48.390;17.598;2022-12-01T11:26:19;100335.44;;;18.04;28.28
76603;BME280;65075;48.390;17.598;2022-12-01T11:29:05;100333.72;;;15.26;33.20
76603;BME280;65075;48.390;17.598;2022-12-01T11:31:45;100332.13;;;15.74;31.76
76603;BME280;65075;48.390;17.598;2022-12-01T11:38:01;100318.81;;;13.97;35.57
76603;BME280;65075;48.390;17.598;2022-12-01T11:40:37;100333.13;;;14.55;34.94
76603;BME280;65075;48.390;17.598;2022-12-01T11:45:52;100327.16;;;13.25;38.34
76603;BME280;65075;48.390;17.598;2022-12-01T11:48:28;100338.97;;;13.36;38.22
76603;BME280;65075;48.390;17.598;2022-12-01T11:51:04;100340.69;;;12.53;38.40
76603;BME280;65075;48.390;17.598;2022-12-01T11:53:36;100327.59;;;12.55;39.32
76603;BME280;65075;48.390;17.598;2022-12-01T11:56:23;100337.72;;;10.39;43.84
76603;BME280;65075;48.390;17.598;2022-12-01T11:58:59;100320.69;;;11.09;41.52
76603;BME280;65075;48.390;17.598;2022-12-01T12:04:33;100329.94;;;12.41;38.38
76603;BME280;65075;48.390;17.598;2022-12-01T12:12:47;100325.25;;;11.25;41.74
76603;BME280;65075;48.390;17.598;2022-12-01T12:15:42;100331.09;;;12.92;38.68
76603;BME280;65075;48.390;17.598;2022-12-01T12:26:46;100313.75;;;10.41;44.81
76603;BME280;65075;48.390;17.598;2022-12-01T12:29:29;100311.25;;;12.28;40.95
76603;BME280;65075;48.390;17.598;2022-12-01T12:46:09;100310.03;;;10.30;46.59
76603;BME280;65075;48.390;17.598;2022-12-01T12:51:51;100306.41;;;9.18;51.58
76603;BME280;65075;48.390;17.598;2022-12-01T12:57:27;100307.00;;;8.81;53.12
76603;BME280;65075;48.390;17.598;2022-12-01T13:05:23;100295.91;;;8.01;56.85
76603;BME280;65075;48.390;17.598;2022-12-01T13:10:52;100304.94;;;7.72;56.52
76603;BME280;65075;48.390;17.598;2022-12-01T13:13:52;100297.16;;;8.80;53.39
76603;BME280;65075;48.390;17.598;2022-12-01T13:19:27;100299.59;;;10.11;49.42
76603;BME280;65075;48.390;17.598;2022-12-01T13:21:55;100278.91;;;9.48;51.65
76603;BME280;65075;48.390;17.598;2022-12-01T13:24:27;100301.19;;;9.45;51.48
76603;BME280;65075;48.390;17.598;2022-12-01T13:27:01;100266.59;;;9.01;52.38
76603;BME280;65075;48.390;17.598;2022-12-01T13:29:33;100294.59;;;8.15;55.35
76603;BME280;65075;48.390;17.598;2022-12-01T13:32:01;100308.59;;;8.30;55.21
76603;BME280;65075;48.390;17.598;2022-12-01T13:34:39;100296.56;;;7.73;57.05
76603;BME280;65075;48.390;17.598;2022-12-01T13:37:08;100238.69;;;7.61;56.00
76603;BME280;65075;48.390;17.598;2022-12-01T13:39:38;100277.38;;;7.15;57.50
76603;BME280;65075;48.390;17.598;2022-12-01T13:44:32;100297.63;;;6.65;60.77
76603;BME280;65075;48.390;17.598;2022-12-01T13:49:44;100293.41;;;6.69;59.74
76603;BME280;65075;48.390;17.598;2022-12-01T13:52:26;100294.47;;;6.50;60.61
76603;BME280;65075;48.390;17.598;2022-12-01T14:00:39;100238.78;;;5.93;60.22
76603;BME280;65075;48.390;17.598;2022-12-01T14:13:21;100288.72;;;6.40;60.56
76603;BME280;65075;48.390;17.598;2022-12-01T14:15:55;100286.66;;;6.17;61.56
76603;BME280;65075;48.390;17.598;2022-12-01T14:20:53;100267.53;;;7.03;58.01
76603;BME280;65075;48.390;17.598;2022-12-01T14:26:01;100285.28;;;5.58;62.50
76603;BME280;65075;48.390;17.598;2022-12-01T14:31:22;100284.94;;;6.04;60.85
76603;BME280;65075;48.390;17.598;2022-12-01T14:34:01;100277.16;;;5.83;62.05
76603;BME280;65075;48.390;17.598;2022-12-01T14:36:40;100285.75;;;5.17;64.26
76603;BME280;65075;48.390;17.598;2022-12-01T14:39:25;100269.50;;;5.17;64.29
76603;BME280;65075;48.390;17.598;2022-12-01T14:41:57;100279.03;;;5.27;64.56
76603;BME280;65075;48.390;17.598;2022-12-01T14:44:46;100278.09;;;6.20;61.47
76603;BME280;65075;48.390;17.598;2022-12-01T14:47:21;100269.88;;;4.90;65.32
76603;BME280;65075;48.390;17.598;2022-12-01T14:50:10;100286.25;;;5.01;64.44
76603;BME280;65075;48.390;17.598;2022-12-01T14:52:45;100271.59;;;4.71;63.98
76603;BME280;65075;48.390;17.598;2022-12-01T14:55:22;100179.66;;;3.76;65.99
76603;BME280;65075;48.390;17.598;2022-12-01T14:57:52;100248.88;;;4.41;66.71
76603;BME280;65075;48.390;17.598;2022-12-01T15:00:24;100267.19;;;4.26;66.84
76603;BME280;65075;48.390;17.598;2022-12-01T15:02:53;100275.03;;;4.47;66.17
76603;BME280;65075;48.390;17.598;2022-12-01T15:05:23;100269.16;;;4.63;65.57
76603;BME280;65075;48.390;17.598;2022-12-01T15:07:53;100270.47;;;4.47;65.45
76603;BME280;65075;48.390;17.598;2022-12-01T15:10:20;100276.25;;;4.57;65.49
76603;BME280;65075;48.390;17.598;2022-12-01T15:12:48;100269.22;;;4.37;66.71
76603;BME280;65075;48.390;17.598;2022-12-01T15:15:17;100276.16;;;4.07;67.36